West Chester, Iowa
Current Conditions -  °F | °C
As of 2:15 AM on Saturday 25 Oct 2014 (Local Time) from KAWG Reporting Station
Moderate Fog Moderate Fog  
Wind Chill: 54°   Ceiling: 100
Heat Index: 54°   Visibility: 0mi
Dew Point: 54°   Wind: 5mph
Humidity: 100%   Direction: 240°WSW
Pressure: 29.95"   Gusts: NA
Location:  41.34°N, 91.82°W
Report Text: KAWG 250715Z AUTO 24004KT M1/4SM FG OVC001 12/12 A2995 RMK AO2
Loading
Personal Weather Stations






























Interactive Weather Map New forecast layout! Learn more

10-Day Weather Forecast

Advertisements
Track Severe Weather on mobile